sensor_id;sensor_type;location;lat;lon;timestamp;P1;durP1;ratioP1;P2;durP2;ratioP2
3735;SDS011;1883;48.202;16.310;2024-03-08T00:01:12;118.70;;;39.07;;
3735;SDS011;1883;48.202;16.310;2024-03-08T00:03:54;110.63;;;33.27;;
3735;SDS011;1883;48.202;16.310;2024-03-08T00:06:22;94.73;;;33.33;;
3735;SDS011;1883;48.202;16.310;2024-03-08T00:08:52;109.63;;;34.50;;
3735;SDS011;1883;48.202;16.310;2024-03-08T00:11:19;111.83;;;34.33;;
3735;SDS011;1883;48.202;16.310;2024-03-08T00:13:48;121.07;;;34.90;;
3735;SDS011;1883;48.202;16.310;2024-03-08T00:16:15;116.80;;;36.00;;
3735;SDS011;1883;48.202;16.310;2024-03-08T00:18:44;124.77;;;36.73;;
3735;SDS011;1883;48.202;16.310;2024-03-08T00:21:13;102.37;;;35.30;;
3735;SDS011;1883;48.202;16.310;2024-03-08T00:23:40;111.03;;;34.47;;
3735;SDS011;1883;48.202;16.310;2024-03-08T00:26:09;121.33;;;35.33;;
3735;SDS011;1883;48.202;16.310;2024-03-08T00:28:38;112.17;;;36.57;;
3735;SDS011;1883;48.202;16.310;2024-03-08T00:31:06;110.40;;;34.60;;
3735;SDS011;1883;48.202;16.310;2024-03-08T00:33:35;108.40;;;36.20;;
3735;SDS011;1883;48.202;16.310;2024-03-08T00:36:09;108.53;;;34.23;;
3735;SDS011;1883;48.202;16.310;2024-03-08T00:38:39;111.83;;;34.57;;
3735;SDS011;1883;48.202;16.310;2024-03-08T00:41:06;112.23;;;37.03;;
3735;SDS011;1883;48.202;16.310;2024-03-08T00:43:40;118.40;;;36.10;;
3735;SDS011;1883;48.202;16.310;2024-03-08T00:46:07;117.43;;;37.47;;
3735;SDS011;1883;48.202;16.310;2024-03-08T00:48:35;117.93;;;34.77;;
3735;SDS011;1883;48.202;16.310;2024-03-08T00:51:03;121.43;;;35.53;;
3735;SDS011;1883;48.202;16.310;2024-03-08T00:53:30;110.97;;;34.90;;
3735;SDS011;1883;48.202;16.310;2024-03-08T00:55:58;115.33;;;38.17;;
3735;SDS011;1883;48.202;16.310;2024-03-08T00:58:25;101.07;;;33.60;;
3735;SDS011;1883;48.202;16.310;2024-03-08T01:00:54;122.77;;;33.17;;
3735;SDS011;1883;48.202;16.310;2024-03-08T01:03:22;110.70;;;35.30;;
3735;SDS011;1883;48.202;16.310;2024-03-08T01:05:49;104.93;;;35.50;;
3735;SDS011;1883;48.202;16.310;2024-03-08T01:08:16;109.87;;;34.70;;
3735;SDS011;1883;48.202;16.310;2024-03-08T01:10:44;127.53;;;37.43;;
3735;SDS011;1883;48.202;16.310;2024-03-08T01:13:11;136.30;;;39.50;;
3735;SDS011;1883;48.202;16.310;2024-03-08T01:15:38;116.07;;;37.33;;
3735;SDS011;1883;48.202;16.310;2024-03-08T01:18:11;141.63;;;38.87;;
3735;SDS011;1883;48.202;16.310;2024-03-08T01:20:38;104.73;;;36.10;;
3735;SDS011;1883;48.202;16.310;2024-03-08T01:23:06;105.93;;;36.07;;
3735;SDS011;1883;48.202;16.310;2024-03-08T01:25:33;132.47;;;38.57;;
3735;SDS011;1883;48.202;16.310;2024-03-08T01:28:00;113.57;;;34.50;;
3735;SDS011;1883;48.202;16.310;2024-03-08T01:30:27;119.47;;;35.87;;
3735;SDS011;1883;48.202;16.310;2024-03-08T01:32:54;109.40;;;32.77;;
3735;SDS011;1883;48.202;16.310;2024-03-08T01:35:23;118.40;;;35.93;;
3735;SDS011;1883;48.202;16.310;2024-03-08T01:37:51;108.10;;;36.17;;
3735;SDS011;1883;48.202;16.310;2024-03-08T01:40:18;128.20;;;39.83;;
3735;SDS011;1883;48.202;16.310;2024-03-08T01:42:47;144.90;;;40.70;;
3735;SDS011;1883;48.202;16.310;2024-03-08T01:45:14;135.37;;;40.33;;
3735;SDS011;1883;48.202;16.310;2024-03-08T01:47:41;126.20;;;40.90;;
3735;SDS011;1883;48.202;16.310;2024-03-08T01:50:09;133.03;;;34.63;;
3735;SDS011;1883;48.202;16.310;2024-03-08T01:52:38;126.00;;;38.73;;
3735;SDS011;1883;48.202;16.310;2024-03-08T01:55:06;119.10;;;36.13;;
3735;SDS011;1883;48.202;16.310;2024-03-08T01:57:33;113.13;;;35.23;;
3735;SDS011;1883;48.202;16.310;2024-03-08T02:00:03;121.63;;;35.77;;
3735;SDS011;1883;48.202;16.310;2024-03-08T02:02:35;114.20;;;35.57;;
3735;SDS011;1883;48.202;16.310;2024-03-08T02:05:04;113.47;;;30.77;;
3735;SDS011;1883;48.202;16.310;2024-03-08T02:07:32;6.77;;;2.10;;
3735;SDS011;1883;48.202;16.310;2024-03-08T02:10:00;9.67;;;4.10;;
3735;SDS011;1883;48.202;16.310;2024-03-08T02:12:27;8.47;;;4.23;;
3735;SDS011;1883;48.202;16.310;2024-03-08T02:14:54;4.00;;;1.37;;
3735;SDS011;1883;48.202;16.310;2024-03-08T02:17:21;4.27;;;1.60;;
3735;SDS011;1883;48.202;16.310;2024-03-08T02:19:48;6.10;;;2.73;;
3735;SDS011;1883;48.202;16.310;2024-03-08T02:22:17;3.40;;;1.13;;
3735;SDS011;1883;48.202;16.310;2024-03-08T02:24:44;23.40;;;2.03;;
3735;SDS011;1883;48.202;16.310;2024-03-08T02:27:11;11.53;;;3.87;;
3735;SDS011;1883;48.202;16.310;2024-03-08T02:29:40;4.90;;;2.10;;
3735;SDS011;1883;48.202;16.310;2024-03-08T02:32:12;3.20;;;1.13;;
3735;SDS011;1883;48.202;16.310;2024-03-08T02:34:39;5.57;;;1.30;;
3735;SDS011;1883;48.202;16.310;2024-03-08T02:37:06;2.90;;;0.70;;
3735;SDS011;1883;48.202;16.310;2024-03-08T02:39:35;13.07;;;1.83;;
3735;SDS011;1883;48.202;16.310;2024-03-08T02:42:02;5.03;;;1.67;;
3735;SDS011;1883;48.202;16.310;2024-03-08T02:44:29;3.47;;;1.43;;
3735;SDS011;1883;48.202;16.310;2024-03-08T02:46:56;5.47;;;1.80;;
3735;SDS011;1883;48.202;16.310;2024-03-08T02:49:23;11.10;;;1.80;;
3735;SDS011;1883;48.202;16.310;2024-03-08T02:51:56;4.17;;;1.67;;
3735;SDS011;1883;48.202;16.310;2024-03-08T02:54:23;28.57;;;1.37;;
3735;SDS011;1883;48.202;16.310;2024-03-08T02:56:52;5.33;;;2.10;;
3735;SDS011;1883;48.202;16.310;2024-03-08T02:59:19;2.70;;;0.90;;
3735;SDS011;1883;48.202;16.310;2024-03-08T03:01:45;36.30;;;1.43;;
3735;SDS011;1883;48.202;16.310;2024-03-08T03:04:12;7.00;;;1.93;;
3735;SDS011;1883;48.202;16.310;2024-03-08T03:06:39;5.07;;;1.43;;
3735;SDS011;1883;48.202;16.310;2024-03-08T03:09:06;7.17;;;2.50;;
3735;SDS011;1883;48.202;16.310;2024-03-08T03:11:35;6.60;;;2.40;;
3735;SDS011;1883;48.202;16.310;2024-03-08T03:14:04;4.27;;;2.03;;
3735;SDS011;1883;48.202;16.310;2024-03-08T03:16:32;6.90;;;2.60;;
3735;SDS011;1883;48.202;16.310;2024-03-08T03:18:59;4.43;;;1.70;;
3735;SDS011;1883;48.202;16.310;2024-03-08T03:21:28;23.93;;;2.40;;
3735;SDS011;1883;48.202;16.310;2024-03-08T03:23:56;8.63;;;1.80;;
3735;SDS011;1883;48.202;16.310;2024-03-08T03:26:24;10.57;;;3.67;;
3735;SDS011;1883;48.202;16.310;2024-03-08T03:28:51;2.53;;;0.53;;
3735;SDS011;1883;48.202;16.310;2024-03-08T03:31:20;2.90;;;0.83;;
3735;SDS011;1883;48.202;16.310;2024-03-08T03:33:49;3.67;;;1.13;;
3735;SDS011;1883;48.202;16.310;2024-03-08T03:36:17;12.10;;;3.33;;
3735;SDS011;1883;48.202;16.310;2024-03-08T03:38:44;3.50;;;1.03;;
3735;SDS011;1883;48.202;16.310;2024-03-08T03:41:11;14.60;;;4.07;;
3735;SDS011;1883;48.202;16.310;2024-03-08T03:43:39;10.23;;;3.27;;
3735;SDS011;1883;48.202;16.310;2024-03-08T03:46:07;3.63;;;1.10;;
3735;SDS011;1883;48.202;16.310;2024-03-08T03:48:37;4.00;;;2.40;;
3735;SDS011;1883;48.202;16.310;2024-03-08T03:51:07;42.10;;;2.43;;
3735;SDS011;1883;48.202;16.310;2024-03-08T03:53:35;4.93;;;1.40;;
3735;SDS011;1883;48.202;16.310;2024-03-08T03:56:02;5.13;;;1.07;;
3735;SDS011;1883;48.202;16.310;2024-03-08T03:58:32;2.60;;;0.67;;
3735;SDS011;1883;48.202;16.310;2024-03-08T04:00:59;6.40;;;1.70;;
3735;SDS011;1883;48.202;16.310;2024-03-08T04:03:26;3.33;;;1.37;;
3735;SDS011;1883;48.202;16.310;2024-03-08T04:05:54;9.33;;;2.67;;
3735;SDS011;1883;48.202;16.310;2024-03-08T04:08:21;7.97;;;2.63;;
3735;SDS011;1883;48.202;16.310;2024-03-08T04:10:49;4.90;;;2.90;;
3735;SDS011;1883;48.202;16.310;2024-03-08T04:13:16;4.30;;;2.17;;
3735;SDS011;1883;48.202;16.310;2024-03-08T04:15:46;2.60;;;0.70;;
3735;SDS011;1883;48.202;16.310;2024-03-08T04:18:13;4.97;;;1.97;;
3735;SDS011;1883;48.202;16.310;2024-03-08T04:20:40;2.97;;;0.80;;
3735;SDS011;1883;48.202;16.310;2024-03-08T04:23:09;2.73;;;0.80;;
3735;SDS011;1883;48.202;16.310;2024-03-08T04:25:35;6.67;;;1.90;;
3735;SDS011;1883;48.202;16.310;2024-03-08T04:28:03;3.90;;;1.07;;
3735;SDS011;1883;48.202;16.310;2024-03-08T04:30:30;2.57;;;0.70;;
3735;SDS011;1883;48.202;16.310;2024-03-08T04:32:57;3.77;;;1.40;;
3735;SDS011;1883;48.202;16.310;2024-03-08T04:35:24;3.33;;;0.90;;
3735;SDS011;1883;48.202;16.310;2024-03-08T04:37:51;6.30;;;2.60;;
3735;SDS011;1883;48.202;16.310;2024-03-08T04:40:24;9.50;;;3.03;;
3735;SDS011;1883;48.202;16.310;2024-03-08T04:42:51;6.93;;;1.53;;
3735;SDS011;1883;48.202;16.310;2024-03-08T04:45:18;6.23;;;2.57;;
3735;SDS011;1883;48.202;16.310;2024-03-08T04:47:45;4.67;;;1.73;;
3735;SDS011;1883;48.202;16.310;2024-03-08T04:50:12;4.73;;;1.83;;
3735;SDS011;1883;48.202;16.310;2024-03-08T04:52:39;5.70;;;1.67;;
3735;SDS011;1883;48.202;16.310;2024-03-08T04:55:06;26.53;;;1.63;;
3735;SDS011;1883;48.202;16.310;2024-03-08T04:57:35;9.83;;;3.67;;
3735;SDS011;1883;48.202;16.310;2024-03-08T05:00:04;4.83;;;1.43;;
3735;SDS011;1883;48.202;16.310;2024-03-08T05:02:36;10.07;;;3.10;;
3735;SDS011;1883;48.202;16.310;2024-03-08T05:05:04;4.13;;;1.20;;
3735;SDS011;1883;48.202;16.310;2024-03-08T05:07:33;3.83;;;1.93;;
3735;SDS011;1883;48.202;16.310;2024-03-08T05:10:00;15.33;;;2.40;;
3735;SDS011;1883;48.202;16.310;2024-03-08T05:12:27;8.70;;;1.70;;
3735;SDS011;1883;48.202;16.310;2024-03-08T05:14:56;9.90;;;4.43;;
3735;SDS011;1883;48.202;16.310;2024-03-08T05:17:24;4.67;;;1.30;;
3735;SDS011;1883;48.202;16.310;2024-03-08T05:19:51;6.53;;;2.00;;
3735;SDS011;1883;48.202;16.310;2024-03-08T05:22:18;5.70;;;2.50;;
3735;SDS011;1883;48.202;16.310;2024-03-08T05:24:45;9.23;;;2.50;;
3735;SDS011;1883;48.202;16.310;2024-03-08T05:27:12;2.90;;;1.10;;
3735;SDS011;1883;48.202;16.310;2024-03-08T05:29:39;6.67;;;1.30;;
3735;SDS011;1883;48.202;16.310;2024-03-08T05:32:12;3.20;;;1.13;;
3735;SDS011;1883;48.202;16.310;2024-03-08T05:34:39;2.77;;;0.97;;
3735;SDS011;1883;48.202;16.310;2024-03-08T05:37:09;2.97;;;0.97;;
3735;SDS011;1883;48.202;16.310;2024-03-08T05:39:36;8.93;;;2.53;;
3735;SDS011;1883;48.202;16.310;2024-03-08T05:42:03;2.50;;;0.70;;
3735;SDS011;1883;48.202;16.310;2024-03-08T05:44:33;3.53;;;1.50;;
3735;SDS011;1883;48.202;16.310;2024-03-08T05:47:00;6.30;;;2.87;;
3735;SDS011;1883;48.202;16.310;2024-03-08T05:49:29;4.20;;;2.37;;
3735;SDS011;1883;48.202;16.310;2024-03-08T05:51:56;5.93;;;1.83;;
3735;SDS011;1883;48.202;16.310;2024-03-08T05:54:24;9.77;;;2.73;;
3735;SDS011;1883;48.202;16.310;2024-03-08T05:56:52;3.50;;;1.50;;
3735;SDS011;1883;48.202;16.310;2024-03-08T05:59:19;7.13;;;2.73;;
3735;SDS011;1883;48.202;16.310;2024-03-08T06:01:48;6.17;;;2.30;;
3735;SDS011;1883;48.202;16.310;2024-03-08T06:04:15;31.93;;;2.40;;
3735;SDS011;1883;48.202;16.310;2024-03-08T06:06:44;3.07;;;1.20;;
3735;SDS011;1883;48.202;16.310;2024-03-08T06:09:11;3.63;;;1.53;;
3735;SDS011;1883;48.202;16.310;2024-03-08T06:11:42;3.13;;;1.13;;
3735;SDS011;1883;48.202;16.310;2024-03-08T06:14:09;7.60;;;1.37;;
3735;SDS011;1883;48.202;16.310;2024-03-08T06:16:36;6.70;;;2.60;;
3735;SDS011;1883;48.202;16.310;2024-03-08T06:19:03;4.40;;;1.80;;
3735;SDS011;1883;48.202;16.310;2024-03-08T06:21:31;6.67;;;2.40;;
3735;SDS011;1883;48.202;16.310;2024-03-08T06:23:59;2.40;;;0.50;;
3735;SDS011;1883;48.202;16.310;2024-03-08T06:26:26;2.70;;;0.77;;
3735;SDS011;1883;48.202;16.310;2024-03-08T06:28:53;4.77;;;1.83;;
3735;SDS011;1883;48.202;16.310;2024-03-08T06:31:22;10.03;;;4.50;;
3735;SDS011;1883;48.202;16.310;2024-03-08T06:33:49;5.33;;;2.13;;
3735;SDS011;1883;48.202;16.310;2024-03-08T06:36:16;7.30;;;2.00;;
3735;SDS011;1883;48.202;16.310;2024-03-08T06:38:46;2.60;;;0.73;;
3735;SDS011;1883;48.202;16.310;2024-03-08T06:41:15;7.13;;;2.87;;
3735;SDS011;1883;48.202;16.310;2024-03-08T06:43:42;10.67;;;1.70;;
3735;SDS011;1883;48.202;16.310;2024-03-08T06:46:09;3.00;;;1.17;;
3735;SDS011;1883;48.202;16.310;2024-03-08T06:48:37;14.03;;;3.63;;
3735;SDS011;1883;48.202;16.310;2024-03-08T06:51:11;2.80;;;0.80;;
3735;SDS011;1883;48.202;16.310;2024-03-08T06:53:47;17.47;;;3.83;;
3735;SDS011;1883;48.202;16.310;2024-03-08T06:56:16;6.57;;;2.30;;
3735;SDS011;1883;48.202;16.310;2024-03-08T06:58:45;7.57;;;3.33;;
3735;SDS011;1883;48.202;16.310;2024-03-08T07:01:13;8.40;;;3.43;;
3735;SDS011;1883;48.202;16.310;2024-03-08T07:03:41;16.03;;;4.47;;
3735;SDS011;1883;48.202;16.310;2024-03-08T07:06:09;8.60;;;2.47;;
3735;SDS011;1883;48.202;16.310;2024-03-08T07:08:38;13.63;;;4.23;;
3735;SDS011;1883;48.202;16.310;2024-03-08T07:11:05;24.13;;;3.83;;
3735;SDS011;1883;48.202;16.310;2024-03-08T07:13:33;11.50;;;2.93;;
3735;SDS011;1883;48.202;16.310;2024-03-08T07:16:00;7.20;;;2.03;;
3735;SDS011;1883;48.202;16.310;2024-03-08T07:18:27;4.30;;;1.27;;
3735;SDS011;1883;48.202;16.310;2024-03-08T07:20:55;7.73;;;2.43;;
3735;SDS011;1883;48.202;16.310;2024-03-08T07:23:22;27.23;;;2.80;;
3735;SDS011;1883;48.202;16.310;2024-03-08T07:26:07;8.57;;;2.43;;
3735;SDS011;1883;48.202;16.310;2024-03-08T07:28:36;14.40;;;3.17;;
3735;SDS011;1883;48.202;16.310;2024-03-08T07:31:03;3.53;;;1.53;;
3735;SDS011;1883;48.202;16.310;2024-03-08T07:33:46;6.80;;;2.60;;
3735;SDS011;1883;48.202;16.310;2024-03-08T07:36:15;15.83;;;3.00;;
3735;SDS011;1883;48.202;16.310;2024-03-08T07:38:42;22.53;;;3.87;;
3735;SDS011;1883;48.202;16.310;2024-03-08T07:41:11;5.33;;;1.93;;
3735;SDS011;1883;48.202;16.310;2024-03-08T07:43:40;3.80;;;1.37;;
3735;SDS011;1883;48.202;16.310;2024-03-08T07:46:07;4.80;;;2.40;;
3735;SDS011;1883;48.202;16.310;2024-03-08T07:48:36;10.00;;;2.57;;
3735;SDS011;1883;48.202;16.310;2024-03-08T07:51:08;3.10;;;1.07;;
3735;SDS011;1883;48.202;16.310;2024-03-08T07:53:39;9.47;;;2.70;;
3735;SDS011;1883;48.202;16.310;2024-03-08T07:56:07;4.53;;;2.20;;
3735;SDS011;1883;48.202;16.310;2024-03-08T07:58:36;15.43;;;1.63;;
3735;SDS011;1883;48.202;16.310;2024-03-08T08:01:06;10.63;;;4.00;;
3735;SDS011;1883;48.202;16.310;2024-03-08T08:03:33;9.63;;;2.10;;
3735;SDS011;1883;48.202;16.310;2024-03-08T08:06:04;3.93;;;1.50;;
3735;SDS011;1883;48.202;16.310;2024-03-08T08:08:31;9.20;;;2.93;;
3735;SDS011;1883;48.202;16.310;2024-03-08T08:11:00;6.03;;;2.00;;
3735;SDS011;1883;48.202;16.310;2024-03-08T08:13:28;14.83;;;4.70;;
3735;SDS011;1883;48.202;16.310;2024-03-08T08:15:58;14.10;;;2.00;;
3735;SDS011;1883;48.202;16.310;2024-03-08T08:18:27;10.03;;;3.07;;
3735;SDS011;1883;48.202;16.310;2024-03-08T08:20:54;6.07;;;2.53;;
3735;SDS011;1883;48.202;16.310;2024-03-08T08:23:21;8.83;;;2.37;;
3735;SDS011;1883;48.202;16.310;2024-03-08T08:25:48;8.87;;;2.20;;
3735;SDS011;1883;48.202;16.310;2024-03-08T08:28:15;3.97;;;1.23;;
3735;SDS011;1883;48.202;16.310;2024-03-08T08:30:43;16.70;;;3.17;;
3735;SDS011;1883;48.202;16.310;2024-03-08T08:33:10;6.87;;;3.27;;
3735;SDS011;1883;48.202;16.310;2024-03-08T08:35:40;8.70;;;2.70;;
3735;SDS011;1883;48.202;16.310;2024-03-08T08:38:07;21.67;;;4.43;;
3735;SDS011;1883;48.202;16.310;2024-03-08T08:40:34;16.13;;;3.53;;
3735;SDS011;1883;48.202;16.310;2024-03-08T08:43:02;6.83;;;2.67;;
3735;SDS011;1883;48.202;16.310;2024-03-08T08:45:31;10.00;;;3.23;;
3735;SDS011;1883;48.202;16.310;2024-03-08T08:48:00;11.50;;;2.50;;
3735;SDS011;1883;48.202;16.310;2024-03-08T08:50:30;4.53;;;2.10;;
3735;SDS011;1883;48.202;16.310;2024-03-08T08:53:01;3.20;;;0.90;;
3735;SDS011;1883;48.202;16.310;2024-03-08T08:55:42;17.73;;;3.70;;
3735;SDS011;1883;48.202;16.310;2024-03-08T08:58:53;3.47;;;1.17;;
3735;SDS011;1883;48.202;16.310;2024-03-08T10:12:23;3.20;;;0.70;;
3735;SDS011;1883;48.202;16.310;2024-03-08T10:14:50;106.13;;;4.53;;
3735;SDS011;1883;48.202;16.310;2024-03-08T10:17:20;10.83;;;2.30;;
3735;SDS011;1883;48.202;16.310;2024-03-08T10:19:51;4.67;;;1.70;;
3735;SDS011;1883;48.202;16.310;2024-03-08T10:22:19;13.20;;;3.03;;
3735;SDS011;1883;48.202;16.310;2024-03-08T10:24:46;5.20;;;2.20;;
3735;SDS011;1883;48.202;16.310;2024-03-08T10:27:16;8.40;;;3.30;;
3735;SDS011;1883;48.202;16.310;2024-03-08T10:29:47;16.17;;;1.73;;
3735;SDS011;1883;48.202;16.310;2024-03-08T10:32:16;15.90;;;4.37;;
3735;SDS011;1883;48.202;16.310;2024-03-08T10:34:43;5.00;;;1.60;;
3735;SDS011;1883;48.202;16.310;2024-03-08T10:37:14;8.83;;;2.40;;
3735;SDS011;1883;48.202;16.310;2024-03-08T10:39:49;11.13;;;1.83;;
3735;SDS011;1883;48.202;16.310;2024-03-08T10:42:25;7.73;;;2.07;;
3735;SDS011;1883;48.202;16.310;2024-03-08T10:44:58;8.07;;;2.10;;
3735;SDS011;1883;48.202;16.310;2024-03-08T10:47:33;18.53;;;3.73;;
3735;SDS011;1883;48.202;16.310;2024-03-08T10:50:08;8.73;;;1.57;;
3735;SDS011;1883;48.202;16.310;2024-03-08T10:52:42;5.90;;;1.10;;
3735;SDS011;1883;48.202;16.310;2024-03-08T10:55:13;5.20;;;1.70;;
3735;SDS011;1883;48.202;16.310;2024-03-08T10:57:42;6.70;;;1.63;;
3735;SDS011;1883;48.202;16.310;2024-03-08T11:00:12;7.50;;;1.57;;
3735;SDS011;1883;48.202;16.310;2024-03-08T11:02:44;13.63;;;3.20;;
3735;SDS011;1883;48.202;16.310;2024-03-08T11:05:16;6.17;;;1.40;;
3735;SDS011;1883;48.202;16.310;2024-03-08T11:08:15;12.23;;;1.83;;
3735;SDS011;1883;48.202;16.310;2024-03-08T11:10:46;5.77;;;1.80;;
3735;SDS011;1883;48.202;16.310;2024-03-08T11:19:06;18.97;;;2.00;;
3735;SDS011;1883;48.202;16.310;2024-03-08T11:21:59;7.33;;;1.43;;
3735;SDS011;1883;48.202;16.310;2024-03-08T11:24:33;7.00;;;2.20;;
3735;SDS011;1883;48.202;16.310;2024-03-08T11:27:05;8.13;;;2.10;;
3735;SDS011;1883;48.202;16.310;2024-03-08T11:29:37;5.67;;;1.30;;
3735;SDS011;1883;48.202;16.310;2024-03-08T11:32:09;4.77;;;1.10;;
3735;SDS011;1883;48.202;16.310;2024-03-08T11:34:39;8.20;;;2.83;;
3735;SDS011;1883;48.202;16.310;2024-03-08T11:37:13;4.67;;;1.23;;
3735;SDS011;1883;48.202;16.310;2024-03-08T11:39:46;8.20;;;1.80;;
3735;SDS011;1883;48.202;16.310;2024-03-08T11:42:30;5.80;;;1.37;;
3735;SDS011;1883;48.202;16.310;2024-03-08T11:44:57;6.00;;;1.10;;
3735;SDS011;1883;48.202;16.310;2024-03-08T11:47:34;5.70;;;1.40;;
3735;SDS011;1883;48.202;16.310;2024-03-08T11:50:13;7.23;;;1.53;;
3735;SDS011;1883;48.202;16.310;2024-03-08T11:53:02;5.90;;;1.93;;
3735;SDS011;1883;48.202;16.310;2024-03-08T11:55:35;4.23;;;0.90;;
3735;SDS011;1883;48.202;16.310;2024-03-08T11:58:03;7.30;;;2.20;;
3735;SDS011;1883;48.202;16.310;2024-03-08T12:00:33;14.20;;;2.40;;
3735;SDS011;1883;48.202;16.310;2024-03-08T12:03:05;4.20;;;0.77;;
3735;SDS011;1883;48.202;16.310;2024-03-08T12:05:37;5.23;;;1.90;;
3735;SDS011;1883;48.202;16.310;2024-03-08T12:08:05;19.83;;;1.97;;
3735;SDS011;1883;48.202;16.310;2024-03-08T12:10:38;7.23;;;2.20;;
3735;SDS011;1883;48.202;16.310;2024-03-08T12:13:07;7.50;;;1.70;;
3735;SDS011;1883;48.202;16.310;2024-03-08T12:15:39;5.47;;;1.10;;
3735;SDS011;1883;48.202;16.310;2024-03-08T12:18:10;6.63;;;1.90;;
3735;SDS011;1883;48.202;16.310;2024-03-08T12:20:38;7.80;;;1.83;;
3735;SDS011;1883;48.202;16.310;2024-03-08T12:23:14;6.33;;;1.10;;
3735;SDS011;1883;48.202;16.310;2024-03-08T12:25:42;22.73;;;2.27;;
3735;SDS011;1883;48.202;16.310;2024-03-08T12:28:10;17.50;;;2.27;;
3735;SDS011;1883;48.202;16.310;2024-03-08T12:30:44;6.03;;;1.20;;
3735;SDS011;1883;48.202;16.310;2024-03-08T12:33:15;7.77;;;1.60;;
3735;SDS011;1883;48.202;16.310;2024-03-08T12:35:49;4.30;;;1.07;;
3735;SDS011;1883;48.202;16.310;2024-03-08T12:38:19;3.93;;;0.63;;
3735;SDS011;1883;48.202;16.310;2024-03-08T12:40:50;5.80;;;1.43;;
3735;SDS011;1883;48.202;16.310;2024-03-08T12:43:22;9.57;;;1.53;;
3735;SDS011;1883;48.202;16.310;2024-03-08T12:45:49;17.40;;;1.73;;
3735;SDS011;1883;48.202;16.310;2024-03-08T12:48:19;4.20;;;0.83;;
3735;SDS011;1883;48.202;16.310;2024-03-08T12:50:46;6.30;;;1.63;;
3735;SDS011;1883;48.202;16.310;2024-03-08T12:53:16;6.30;;;1.93;;
3735;SDS011;1883;48.202;16.310;2024-03-08T12:55:44;8.83;;;1.70;;
3735;SDS011;1883;48.202;16.310;2024-03-08T12:58:11;5.30;;;1.60;;
3735;SDS011;1883;48.202;16.310;2024-03-08T13:00:38;10.00;;;2.20;;
3735;SDS011;1883;48.202;16.310;2024-03-08T13:03:08;4.70;;;1.33;;
3735;SDS011;1883;48.202;16.310;2024-03-08T13:05:37;3.63;;;0.60;;
3735;SDS011;1883;48.202;16.310;2024-03-08T13:08:05;3.80;;;0.60;;
3735;SDS011;1883;48.202;16.310;2024-03-08T13:10:37;4.00;;;0.80;;
3735;SDS011;1883;48.202;16.310;2024-03-08T13:13:04;5.13;;;0.90;;
3735;SDS011;1883;48.202;16.310;2024-03-08T13:15:31;4.67;;;1.43;;
3735;SDS011;1883;48.202;16.310;2024-03-08T13:17:58;9.40;;;1.63;;
3735;SDS011;1883;48.202;16.310;2024-03-08T13:20:26;8.70;;;1.57;;
3735;SDS011;1883;48.202;16.310;2024-03-08T13:22:56;7.43;;;1.40;;
3735;SDS011;1883;48.202;16.310;2024-03-08T13:25:25;8.53;;;2.17;;
3735;SDS011;1883;48.202;16.310;2024-03-08T13:27:54;5.60;;;1.13;;
3735;SDS011;1883;48.202;16.310;2024-03-08T13:30:24;7.30;;;1.17;;
3735;SDS011;1883;48.202;16.310;2024-03-08T13:32:51;5.60;;;1.37;;
3735;SDS011;1883;48.202;16.310;2024-03-08T13:35:20;3.93;;;0.50;;
3735;SDS011;1883;48.202;16.310;2024-03-08T13:37:52;6.80;;;2.33;;
3735;SDS011;1883;48.202;16.310;2024-03-08T13:40:21;4.60;;;1.03;;
3735;SDS011;1883;48.202;16.310;2024-03-08T13:42:49;4.03;;;0.60;;
3735;SDS011;1883;48.202;16.310;2024-03-08T13:45:16;8.10;;;1.53;;
3735;SDS011;1883;48.202;16.310;2024-03-08T13:47:48;5.37;;;1.07;;
3735;SDS011;1883;48.202;16.310;2024-03-08T13:50:16;13.67;;;2.50;;
3735;SDS011;1883;48.202;16.310;2024-03-08T13:52:46;5.23;;;1.13;;
3735;SDS011;1883;48.202;16.310;2024-03-08T13:55:17;6.00;;;1.57;;
3735;SDS011;1883;48.202;16.310;2024-03-08T13:57:45;14.60;;;2.33;;
3735;SDS011;1883;48.202;16.310;2024-03-08T14:00:14;4.33;;;0.80;;
3735;SDS011;1883;48.202;16.310;2024-03-08T14:02:41;9.53;;;0.90;;
3735;SDS011;1883;48.202;16.310;2024-03-08T14:05:09;4.77;;;1.27;;
3735;SDS011;1883;48.202;16.310;2024-03-08T14:07:37;6.00;;;0.83;;
3735;SDS011;1883;48.202;16.310;2024-03-08T14:10:04;9.00;;;1.50;;
3735;SDS011;1883;48.202;16.310;2024-03-08T14:12:38;8.73;;;1.40;;
3735;SDS011;1883;48.202;16.310;2024-03-08T14:15:08;7.60;;;2.63;;
3735;SDS011;1883;48.202;16.310;2024-03-08T14:17:37;7.23;;;1.80;;
3735;SDS011;1883;48.202;16.310;2024-03-08T14:20:05;6.97;;;1.53;;
3735;SDS011;1883;48.202;16.310;2024-03-08T14:22:36;6.83;;;2.10;;
3735;SDS011;1883;48.202;16.310;2024-03-08T14:25:07;9.13;;;2.43;;
3735;SDS011;1883;48.202;16.310;2024-03-08T14:27:42;4.50;;;1.10;;
3735;SDS011;1883;48.202;16.310;2024-03-08T14:30:11;11.30;;;1.10;;
3735;SDS011;1883;48.202;16.310;2024-03-08T14:32:57;4.40;;;1.00;;
3735;SDS011;1883;48.202;16.310;2024-03-08T14:35:24;6.17;;;1.20;;
3735;SDS011;1883;48.202;16.310;2024-03-08T14:37:53;5.33;;;1.30;;
3735;SDS011;1883;48.202;16.310;2024-03-08T14:40:21;4.30;;;0.87;;
3735;SDS011;1883;48.202;16.310;2024-03-08T14:42:49;5.33;;;1.03;;
3735;SDS011;1883;48.202;16.310;2024-03-08T14:45:18;7.30;;;1.47;;
3735;SDS011;1883;48.202;16.310;2024-03-08T14:47:47;3.93;;;0.60;;
3735;SDS011;1883;48.202;16.310;2024-03-08T14:50:16;7.50;;;2.60;;
3735;SDS011;1883;48.202;16.310;2024-03-08T14:52:43;4.00;;;0.63;;
3735;SDS011;1883;48.202;16.310;2024-03-08T14:55:11;6.67;;;1.63;;
3735;SDS011;1883;48.202;16.310;2024-03-08T14:57:40;16.70;;;3.70;;
3735;SDS011;1883;48.202;16.310;2024-03-08T15:00:11;5.93;;;2.60;;
3735;SDS011;1883;48.202;16.310;2024-03-08T15:02:45;4.10;;;0.70;;
3735;SDS011;1883;48.202;16.310;2024-03-08T15:05:13;6.30;;;0.97;;
3735;SDS011;1883;48.202;16.310;2024-03-08T15:07:51;6.77;;;2.10;;
3735;SDS011;1883;48.202;16.310;2024-03-08T15:10:19;5.80;;;1.60;;
3735;SDS011;1883;48.202;16.310;2024-03-08T15:12:49;5.37;;;1.40;;
3735;SDS011;1883;48.202;16.310;2024-03-08T15:15:21;5.70;;;1.67;;
3735;SDS011;1883;48.202;16.310;2024-03-08T15:17:53;45.10;;;16.80;;
3735;SDS011;1883;48.202;16.310;2024-03-08T15:20:22;53.27;;;19.00;;
3735;SDS011;1883;48.202;16.310;2024-03-08T15:22:51;47.13;;;18.30;;
3735;SDS011;1883;48.202;16.310;2024-03-08T15:25:20;42.60;;;17.80;;
3735;SDS011;1883;48.202;16.310;2024-03-08T15:27:51;44.83;;;17.33;;
3735;SDS011;1883;48.202;16.310;2024-03-08T15:30:19;37.77;;;16.03;;
3735;SDS011;1883;48.202;16.310;2024-03-08T15:32:48;42.57;;;17.47;;
3735;SDS011;1883;48.202;16.310;2024-03-08T15:35:16;42.67;;;17.83;;
3735;SDS011;1883;48.202;16.310;2024-03-08T15:37:45;47.93;;;17.60;;
3735;SDS011;1883;48.202;16.310;2024-03-08T15:40:13;41.23;;;17.67;;
3735;SDS011;1883;48.202;16.310;2024-03-08T15:42:47;43.37;;;18.33;;
3735;SDS011;1883;48.202;16.310;2024-03-08T15:45:16;38.80;;;16.37;;
3735;SDS011;1883;48.202;16.310;2024-03-08T15:47:43;41.73;;;17.90;;
3735;SDS011;1883;48.202;16.310;2024-03-08T15:50:10;45.00;;;16.83;;
3735;SDS011;1883;48.202;16.310;2024-03-08T15:52:42;40.40;;;17.07;;
3735;SDS011;1883;48.202;16.310;2024-03-08T15:55:13;42.07;;;16.27;;
3735;SDS011;1883;48.202;16.310;2024-03-08T15:57:45;43.27;;;18.50;;
3735;SDS011;1883;48.202;16.310;2024-03-08T16:00:18;42.60;;;18.47;;
3735;SDS011;1883;48.202;16.310;2024-03-08T16:02:59;36.13;;;15.10;;
3735;SDS011;1883;48.202;16.310;2024-03-08T16:05:27;48.60;;;19.50;;
3735;SDS011;1883;48.202;16.310;2024-03-08T16:07:56;50.23;;;19.07;;
3735;SDS011;1883;48.202;16.310;2024-03-08T16:10:24;42.43;;;17.83;;
3735;SDS011;1883;48.202;16.310;2024-03-08T16:12:54;48.53;;;17.50;;
3735;SDS011;1883;48.202;16.310;2024-03-08T16:15:21;49.03;;;16.80;;
3735;SDS011;1883;48.202;16.310;2024-03-08T16:17:48;46.03;;;17.20;;
3735;SDS011;1883;48.202;16.310;2024-03-08T16:20:15;45.13;;;16.70;;